sensor_id;sensor_type;location;lat;lon;timestamp;P1;durP1;ratioP1;P2;durP2;ratioP2
45536;SDS011;31262;51.978;5.924;2022-09-09T00:00:26;1.65;;;0.50;;
45536;SDS011;31262;51.978;5.924;2022-09-09T00:05:32;1.08;;;0.38;;
45536;SDS011;31262;51.978;5.924;2022-09-09T00:08:20;1.40;;;0.38;;
45536;SDS011;31262;51.978;5.924;2022-09-09T00:10:51;1.50;;;0.50;;
45536;SDS011;31262;51.978;5.924;2022-09-09T00:14:08;1.55;;;0.52;;
45536;SDS011;31262;51.978;5.924;2022-09-09T00:16:17;2.88;;;0.60;;
45536;SDS011;31262;51.978;5.924;2022-09-09T00:18:56;2.45;;;0.50;;
45536;SDS011;31262;51.978;5.924;2022-09-09T00:21:35;1.30;;;0.30;;
45536;SDS011;31262;51.978;5.924;2022-09-09T00:24:37;2.38;;;0.40;;
45536;SDS011;31262;51.978;5.924;2022-09-09T00:27:04;2.45;;;0.40;;
45536;SDS011;31262;51.978;5.924;2022-09-09T00:29:38;1.75;;;0.40;;
45536;SDS011;31262;51.978;5.924;2022-09-09T00:32:12;2.25;;;0.70;;
45536;SDS011;31262;51.978;5.924;2022-09-09T00:34:47;2.47;;;0.50;;
45536;SDS011;31262;51.978;5.924;2022-09-09T00:37:15;1.88;;;0.57;;
45536;SDS011;31262;51.978;5.924;2022-09-09T00:39:46;1.00;;;0.40;;
45536;SDS011;31262;51.978;5.924;2022-09-09T00:42:14;1.92;;;0.50;;
45536;SDS011;31262;51.978;5.924;2022-09-09T00:44:50;2.00;;;0.50;;
45536;SDS011;31262;51.978;5.924;2022-09-09T00:55:33;1.20;;;0.40;;
45536;SDS011;31262;51.978;5.924;2022-09-09T00:58:07;1.30;;;0.40;;
45536;SDS011;31262;51.978;5.924;2022-09-09T01:10:53;1.15;;;0.32;;
45536;SDS011;31262;51.978;5.924;2022-09-09T01:13:37;2.20;;;0.50;;
45536;SDS011;31262;51.978;5.924;2022-09-09T01:16:06;2.65;;;0.40;;
45536;SDS011;31262;51.978;5.924;2022-09-09T01:18:37;1.30;;;0.30;;
45536;SDS011;31262;51.978;5.924;2022-09-09T01:21:20;1.48;;;0.40;;
45536;SDS011;31262;51.978;5.924;2022-09-09T01:26:49;1.15;;;0.40;;
45536;SDS011;31262;51.978;5.924;2022-09-09T01:29:17;6.78;;;0.40;;
45536;SDS011;31262;51.978;5.924;2022-09-09T01:31:52;3.15;;;0.30;;
45536;SDS011;31262;51.978;5.924;2022-09-09T01:34:24;1.10;;;0.35;;
45536;SDS011;31262;51.978;5.924;2022-09-09T01:37:06;1.17;;;0.38;;
45536;SDS011;31262;51.978;5.924;2022-09-09T01:39:35;1.70;;;0.38;;
45536;SDS011;31262;51.978;5.924;2022-09-09T01:42:02;1.63;;;0.40;;
45536;SDS011;31262;51.978;5.924;2022-09-09T01:44:31;1.17;;;0.30;;
45536;SDS011;31262;51.978;5.924;2022-09-09T01:46:57;0.65;;;0.30;;
45536;SDS011;31262;51.978;5.924;2022-09-09T01:49:22;1.52;;;0.40;;
45536;SDS011;31262;51.978;5.924;2022-09-09T01:51:50;2.25;;;0.40;;
45536;SDS011;31262;51.978;5.924;2022-09-09T01:54:18;2.35;;;0.30;;
45536;SDS011;31262;51.978;5.924;2022-09-09T02:04:48;1.42;;;0.20;;
45536;SDS011;31262;51.978;5.924;2022-09-09T02:07:41;1.80;;;0.30;;
45536;SDS011;31262;51.978;5.924;2022-09-09T02:13:10;1.75;;;0.20;;
45536;SDS011;31262;51.978;5.924;2022-09-09T02:15:48;1.92;;;0.20;;
45536;SDS011;31262;51.978;5.924;2022-09-09T02:18:25;1.98;;;0.20;;
45536;SDS011;31262;51.978;5.924;2022-09-09T02:20:55;1.17;;;0.30;;
45536;SDS011;31262;51.978;5.924;2022-09-09T02:23:22;1.15;;;0.30;;
45536;SDS011;31262;51.978;5.924;2022-09-09T02:25:48;1.15;;;0.30;;
45536;SDS011;31262;51.978;5.924;2022-09-09T02:28:17;1.98;;;0.30;;
45536;SDS011;31262;51.978;5.924;2022-09-09T02:30:45;1.45;;;0.30;;
45536;SDS011;31262;51.978;5.924;2022-09-09T02:33:13;1.50;;;0.30;;
45536;SDS011;31262;51.978;5.924;2022-09-09T02:35:39;1.13;;;0.30;;
45536;SDS011;31262;51.978;5.924;2022-09-09T02:38:09;0.70;;;0.28;;
45536;SDS011;31262;51.978;5.924;2022-09-09T02:40:38;1.20;;;0.40;;
45536;SDS011;31262;51.978;5.924;2022-09-09T02:43:03;1.30;;;0.40;;
45536;SDS011;31262;51.978;5.924;2022-09-09T02:45:35;1.17;;;0.35;;
45536;SDS011;31262;51.978;5.924;2022-09-09T02:48:42;1.55;;;0.30;;
45536;SDS011;31262;51.978;5.924;2022-09-09T02:53:47;1.10;;;0.30;;
45536;SDS011;31262;51.978;5.924;2022-09-09T02:56:32;1.05;;;0.20;;
45536;SDS011;31262;51.978;5.924;2022-09-09T02:59:04;1.00;;;0.30;;
45536;SDS011;31262;51.978;5.924;2022-09-09T03:01:30;2.40;;;0.40;;
45536;SDS011;31262;51.978;5.924;2022-09-09T03:03:56;2.03;;;0.35;;
45536;SDS011;31262;51.978;5.924;2022-09-09T03:06:22;1.42;;;0.30;;
45536;SDS011;31262;51.978;5.924;2022-09-09T03:08:47;2.63;;;0.40;;
45536;SDS011;31262;51.978;5.924;2022-09-09T03:11:14;1.95;;;0.50;;
45536;SDS011;31262;51.978;5.924;2022-09-09T03:13:40;1.58;;;0.38;;
45536;SDS011;31262;51.978;5.924;2022-09-09T03:16:06;1.73;;;0.50;;
45536;SDS011;31262;51.978;5.924;2022-09-09T03:18:32;2.00;;;0.60;;
45536;SDS011;31262;51.978;5.924;2022-09-09T03:20:57;1.65;;;0.30;;
45536;SDS011;31262;51.978;5.924;2022-09-09T03:23:24;2.22;;;0.32;;
45536;SDS011;31262;51.978;5.924;2022-09-09T03:25:50;1.75;;;0.35;;
45536;SDS011;31262;51.978;5.924;2022-09-09T03:28:16;2.45;;;0.40;;
45536;SDS011;31262;51.978;5.924;2022-09-09T03:30:42;1.08;;;0.38;;
45536;SDS011;31262;51.978;5.924;2022-09-09T03:33:08;1.48;;;0.40;;
45536;SDS011;31262;51.978;5.924;2022-09-09T03:35:34;1.52;;;0.40;;
45536;SDS011;31262;51.978;5.924;2022-09-09T03:38:00;1.70;;;0.40;;
45536;SDS011;31262;51.978;5.924;2022-09-09T03:40:25;1.92;;;0.40;;
45536;SDS011;31262;51.978;5.924;2022-09-09T03:42:51;1.83;;;0.40;;
45536;SDS011;31262;51.978;5.924;2022-09-09T03:45:17;2.03;;;0.30;;
45536;SDS011;31262;51.978;5.924;2022-09-09T03:47:42;2.22;;;0.50;;
45536;SDS011;31262;51.978;5.924;2022-09-09T03:50:08;1.60;;;0.40;;
45536;SDS011;31262;51.978;5.924;2022-09-09T03:52:39;3.33;;;0.40;;
45536;SDS011;31262;51.978;5.924;2022-09-09T03:55:06;1.38;;;0.30;;
45536;SDS011;31262;51.978;5.924;2022-09-09T03:57:32;2.13;;;0.40;;
45536;SDS011;31262;51.978;5.924;2022-09-09T04:00:00;1.55;;;0.40;;
45536;SDS011;31262;51.978;5.924;2022-09-09T04:02:29;2.85;;;0.40;;
45536;SDS011;31262;51.978;5.924;2022-09-09T04:04:55;1.17;;;0.45;;
45536;SDS011;31262;51.978;5.924;2022-09-09T04:07:21;1.02;;;0.40;;
45536;SDS011;31262;51.978;5.924;2022-09-09T04:09:46;1.60;;;0.40;;
45536;SDS011;31262;51.978;5.924;2022-09-09T04:12:12;1.92;;;0.47;;
45536;SDS011;31262;51.978;5.924;2022-09-09T04:14:38;3.25;;;0.45;;
45536;SDS011;31262;51.978;5.924;2022-09-09T04:17:03;2.03;;;0.40;;
45536;SDS011;31262;51.978;5.924;2022-09-09T04:19:31;0.90;;;0.40;;
45536;SDS011;31262;51.978;5.924;2022-09-09T04:21:57;1.58;;;0.50;;
45536;SDS011;31262;51.978;5.924;2022-09-09T04:24:23;3.28;;;0.60;;
45536;SDS011;31262;51.978;5.924;2022-09-09T04:26:49;2.58;;;0.50;;
45536;SDS011;31262;51.978;5.924;2022-09-09T04:29:15;3.28;;;0.50;;
45536;SDS011;31262;51.978;5.924;2022-09-09T04:31:40;2.40;;;0.40;;
45536;SDS011;31262;51.978;5.924;2022-09-09T04:34:07;4.85;;;0.85;;
45536;SDS011;31262;51.978;5.924;2022-09-09T04:36:34;2.78;;;0.50;;
45536;SDS011;31262;51.978;5.924;2022-09-09T04:38:59;2.78;;;0.60;;
45536;SDS011;31262;51.978;5.924;2022-09-09T04:41:26;2.47;;;0.80;;
45536;SDS011;31262;51.978;5.924;2022-09-09T04:43:52;2.28;;;0.60;;
45536;SDS011;31262;51.978;5.924;2022-09-09T04:46:19;2.70;;;0.60;;
45536;SDS011;31262;51.978;5.924;2022-09-09T04:48:45;2.90;;;0.60;;
45536;SDS011;31262;51.978;5.924;2022-09-09T04:51:12;3.35;;;0.70;;
45536;SDS011;31262;51.978;5.924;2022-09-09T04:53:39;2.50;;;0.68;;
45536;SDS011;31262;51.978;5.924;2022-09-09T04:56:06;1.95;;;0.52;;
45536;SDS011;31262;51.978;5.924;2022-09-09T04:58:36;2.60;;;0.75;;
45536;SDS011;31262;51.978;5.924;2022-09-09T05:01:10;3.30;;;0.60;;
45536;SDS011;31262;51.978;5.924;2022-09-09T05:03:40;4.00;;;0.60;;
45536;SDS011;31262;51.978;5.924;2022-09-09T05:06:23;2.10;;;0.65;;
45536;SDS011;31262;51.978;5.924;2022-09-09T05:08:49;2.50;;;0.60;;
45536;SDS011;31262;51.978;5.924;2022-09-09T05:11:20;4.07;;;0.70;;
45536;SDS011;31262;51.978;5.924;2022-09-09T05:13:49;2.72;;;0.70;;
45536;SDS011;31262;51.978;5.924;2022-09-09T05:16:15;3.95;;;0.60;;
45536;SDS011;31262;51.978;5.924;2022-09-09T05:18:42;2.85;;;1.00;;
45536;SDS011;31262;51.978;5.924;2022-09-09T05:21:09;4.13;;;0.90;;
45536;SDS011;31262;51.978;5.924;2022-09-09T05:23:38;2.78;;;0.70;;
45536;SDS011;31262;51.978;5.924;2022-09-09T05:26:05;3.40;;;0.82;;
45536;SDS011;31262;51.978;5.924;2022-09-09T05:28:33;3.28;;;0.70;;
45536;SDS011;31262;51.978;5.924;2022-09-09T05:31:02;4.10;;;0.70;;
45536;SDS011;31262;51.978;5.924;2022-09-09T05:33:29;2.92;;;0.60;;
45536;SDS011;31262;51.978;5.924;2022-09-09T05:35:59;2.03;;;0.60;;
45536;SDS011;31262;51.978;5.924;2022-09-09T05:38:37;2.83;;;0.63;;
45536;SDS011;31262;51.978;5.924;2022-09-09T05:41:04;3.40;;;0.60;;
45536;SDS011;31262;51.978;5.924;2022-09-09T05:43:30;5.60;;;0.70;;
45536;SDS011;31262;51.978;5.924;2022-09-09T05:48:37;4.60;;;0.90;;
45536;SDS011;31262;51.978;5.924;2022-09-09T05:51:05;4.18;;;0.90;;
45536;SDS011;31262;51.978;5.924;2022-09-09T05:53:31;4.82;;;0.63;;
45536;SDS011;31262;51.978;5.924;2022-09-09T05:55:59;5.22;;;1.00;;
45536;SDS011;31262;51.978;5.924;2022-09-09T05:58:30;5.10;;;1.15;;
45536;SDS011;31262;51.978;5.924;2022-09-09T06:03:35;5.93;;;1.08;;
45536;SDS011;31262;51.978;5.924;2022-09-09T06:06:02;4.88;;;1.42;;
45536;SDS011;31262;51.978;5.924;2022-09-09T06:08:33;5.03;;;1.10;;
45536;SDS011;31262;51.978;5.924;2022-09-09T06:11:06;1.83;;;0.60;;
45536;SDS011;31262;51.978;5.924;2022-09-09T06:13:33;4.57;;;1.13;;
45536;SDS011;31262;51.978;5.924;2022-09-09T06:16:00;5.43;;;0.93;;
45536;SDS011;31262;51.978;5.924;2022-09-09T06:18:26;6.60;;;1.15;;
45536;SDS011;31262;51.978;5.924;2022-09-09T06:21:02;4.63;;;1.30;;
45536;SDS011;31262;51.978;5.924;2022-09-09T06:23:32;4.07;;;0.80;;
45536;SDS011;31262;51.978;5.924;2022-09-09T06:26:10;5.33;;;0.70;;
45536;SDS011;31262;51.978;5.924;2022-09-09T06:28:37;5.50;;;1.67;;
45536;SDS011;31262;51.978;5.924;2022-09-09T06:31:05;4.70;;;1.17;;
45536;SDS011;31262;51.978;5.924;2022-09-09T06:33:36;4.13;;;1.33;;
45536;SDS011;31262;51.978;5.924;2022-09-09T06:36:06;9.52;;;1.08;;
45536;SDS011;31262;51.978;5.924;2022-09-09T06:38:39;5.40;;;0.90;;
45536;SDS011;31262;51.978;5.924;2022-09-09T06:41:07;4.40;;;0.60;;
45536;SDS011;31262;51.978;5.924;2022-09-09T06:43:34;3.78;;;0.80;;
45536;SDS011;31262;51.978;5.924;2022-09-09T06:48:39;5.53;;;1.00;;
45536;SDS011;31262;51.978;5.924;2022-09-09T06:51:16;6.18;;;0.82;;
45536;SDS011;31262;51.978;5.924;2022-09-09T06:53:44;7.95;;;1.98;;
45536;SDS011;31262;51.978;5.924;2022-09-09T06:58:40;4.78;;;0.80;;
45536;SDS011;31262;51.978;5.924;2022-09-09T07:01:08;6.47;;;1.55;;
45536;SDS011;31262;51.978;5.924;2022-09-09T07:03:33;7.35;;;1.42;;
45536;SDS011;31262;51.978;5.924;2022-09-09T07:06:00;7.50;;;1.20;;
45536;SDS011;31262;51.978;5.924;2022-09-09T07:08:26;4.28;;;0.80;;
45536;SDS011;31262;51.978;5.924;2022-09-09T07:10:53;5.65;;;1.00;;
45536;SDS011;31262;51.978;5.924;2022-09-09T07:13:19;6.05;;;0.88;;
45536;SDS011;31262;51.978;5.924;2022-09-09T07:15:54;4.65;;;0.82;;
45536;SDS011;31262;51.978;5.924;2022-09-09T07:18:19;7.00;;;1.10;;
45536;SDS011;31262;51.978;5.924;2022-09-09T07:20:55;7.97;;;0.70;;
45536;SDS011;31262;51.978;5.924;2022-09-09T07:23:24;3.25;;;0.57;;
45536;SDS011;31262;51.978;5.924;2022-09-09T07:25:50;5.45;;;0.77;;
45536;SDS011;31262;51.978;5.924;2022-09-09T07:28:16;6.28;;;0.80;;
45536;SDS011;31262;51.978;5.924;2022-09-09T07:30:42;5.70;;;1.00;;
45536;SDS011;31262;51.978;5.924;2022-09-09T07:33:08;5.90;;;0.80;;
45536;SDS011;31262;51.978;5.924;2022-09-09T07:35:37;5.28;;;0.90;;
45536;SDS011;31262;51.978;5.924;2022-09-09T07:38:03;8.50;;;0.80;;
45536;SDS011;31262;51.978;5.924;2022-09-09T07:40:32;4.43;;;0.80;;
45536;SDS011;31262;51.978;5.924;2022-09-09T07:42:59;4.55;;;0.60;;
45536;SDS011;31262;51.978;5.924;2022-09-09T07:45:24;6.15;;;1.25;;
45536;SDS011;31262;51.978;5.924;2022-09-09T07:47:52;5.35;;;0.73;;
45536;SDS011;31262;51.978;5.924;2022-09-09T07:50:18;7.18;;;0.90;;
45536;SDS011;31262;51.978;5.924;2022-09-09T07:52:44;3.97;;;0.80;;
45536;SDS011;31262;51.978;5.924;2022-09-09T07:55:09;7.90;;;1.25;;
45536;SDS011;31262;51.978;5.924;2022-09-09T07:57:35;7.30;;;0.68;;
45536;SDS011;31262;51.978;5.924;2022-09-09T08:00:01;3.10;;;0.52;;
45536;SDS011;31262;51.978;5.924;2022-09-09T08:02:28;5.07;;;0.70;;
45536;SDS011;31262;51.978;5.924;2022-09-09T08:04:54;6.45;;;0.70;;
45536;SDS011;31262;51.978;5.924;2022-09-09T08:07:21;5.95;;;0.90;;
45536;SDS011;31262;51.978;5.924;2022-09-09T08:09:48;4.38;;;0.73;;
45536;SDS011;31262;51.978;5.924;2022-09-09T08:12:14;6.93;;;0.70;;
45536;SDS011;31262;51.978;5.924;2022-09-09T08:14:40;4.15;;;0.60;;
45536;SDS011;31262;51.978;5.924;2022-09-09T08:17:07;5.75;;;0.75;;
45536;SDS011;31262;51.978;5.924;2022-09-09T08:19:32;6.18;;;0.80;;
45536;SDS011;31262;51.978;5.924;2022-09-09T08:22:00;5.03;;;0.60;;
45536;SDS011;31262;51.978;5.924;2022-09-09T08:24:27;5.05;;;0.60;;
45536;SDS011;31262;51.978;5.924;2022-09-09T08:26:53;3.03;;;0.52;;
45536;SDS011;31262;51.978;5.924;2022-09-09T08:29:21;6.65;;;0.90;;
45536;SDS011;31262;51.978;5.924;2022-09-09T08:31:47;4.82;;;0.70;;
45536;SDS011;31262;51.978;5.924;2022-09-09T08:34:15;7.72;;;1.40;;
45536;SDS011;31262;51.978;5.924;2022-09-09T08:36:43;6.60;;;0.90;;
45536;SDS011;31262;51.978;5.924;2022-09-09T08:39:10;5.95;;;0.60;;
45536;SDS011;31262;51.978;5.924;2022-09-09T08:41:39;3.95;;;0.50;;
45536;SDS011;31262;51.978;5.924;2022-09-09T08:44:36;5.00;;;0.60;;
45536;SDS011;31262;51.978;5.924;2022-09-09T08:47:26;7.75;;;0.95;;
45536;SDS011;31262;51.978;5.924;2022-09-09T08:50:15;7.88;;;0.60;;
45536;SDS011;31262;51.978;5.924;2022-09-09T09:06:08;6.18;;;0.70;;
45536;SDS011;31262;51.978;5.924;2022-09-09T09:09:05;6.45;;;0.80;;
45536;SDS011;31262;51.978;5.924;2022-09-09T09:14:25;3.85;;;0.50;;
45536;SDS011;31262;51.978;5.924;2022-09-09T09:16:54;4.18;;;0.40;;
45536;SDS011;31262;51.978;5.924;2022-09-09T09:19:24;4.65;;;0.70;;
45536;SDS011;31262;51.978;5.924;2022-09-09T09:24:18;3.88;;;0.40;;
45536;SDS011;31262;51.978;5.924;2022-09-09T09:27:13;3.85;;;0.40;;
45536;SDS011;31262;51.978;5.924;2022-09-09T09:29:41;4.53;;;0.52;;
45536;SDS011;31262;51.978;5.924;2022-09-09T09:32:10;4.22;;;0.40;;
45536;SDS011;31262;51.978;5.924;2022-09-09T09:34:41;5.03;;;0.50;;
45536;SDS011;31262;51.978;5.924;2022-09-09T09:37:12;3.35;;;0.40;;
45536;SDS011;31262;51.978;5.924;2022-09-09T09:39:44;5.82;;;0.50;;
45536;SDS011;31262;51.978;5.924;2022-09-09T09:42:11;4.25;;;0.50;;
45536;SDS011;31262;51.978;5.924;2022-09-09T09:44:45;6.70;;;0.50;;
45536;SDS011;31262;51.978;5.924;2022-09-09T09:47:14;2.90;;;0.50;;
45536;SDS011;31262;51.978;5.924;2022-09-09T09:49:56;3.25;;;0.50;;
45536;SDS011;31262;51.978;5.924;2022-09-09T09:52:25;5.63;;;0.60;;
45536;SDS011;31262;51.978;5.924;2022-09-09T09:54:53;2.67;;;0.40;;
45536;SDS011;31262;51.978;5.924;2022-09-09T09:57:30;3.97;;;0.60;;
45536;SDS011;31262;51.978;5.924;2022-09-09T10:02:43;5.68;;;0.50;;
45536;SDS011;31262;51.978;5.924;2022-09-09T10:07:45;4.85;;;0.40;;
45536;SDS011;31262;51.978;5.924;2022-09-09T10:10:22;5.18;;;0.68;;
45536;SDS011;31262;51.978;5.924;2022-09-09T10:13:00;4.75;;;0.50;;
45536;SDS011;31262;51.978;5.924;2022-09-09T10:29:30;5.22;;;0.70;;
45536;SDS011;31262;51.978;5.924;2022-09-09T10:40:34;4.28;;;0.50;;
45536;SDS011;31262;51.978;5.924;2022-09-09T10:43:19;4.28;;;0.57;;
45536;SDS011;31262;51.978;5.924;2022-09-09T10:46:01;5.40;;;0.60;;
45536;SDS011;31262;51.978;5.924;2022-09-09T10:56:19;4.15;;;0.43;;
45536;SDS011;31262;51.978;5.924;2022-09-09T11:01:39;7.07;;;0.52;;
45536;SDS011;31262;51.978;5.924;2022-09-09T11:06:59;4.43;;;0.50;;
45536;SDS011;31262;51.978;5.924;2022-09-09T11:09:31;4.03;;;0.85;;
45536;SDS011;31262;51.978;5.924;2022-09-09T11:12:02;6.78;;;0.60;;
45536;SDS011;31262;51.978;5.924;2022-09-09T11:14:32;7.53;;;0.47;;
45536;SDS011;31262;51.978;5.924;2022-09-09T11:17:15;3.72;;;0.60;;
45536;SDS011;31262;51.978;5.924;2022-09-09T11:19:45;6.60;;;0.50;;
45536;SDS011;31262;51.978;5.924;2022-09-09T11:22:54;5.07;;;0.50;;
45536;SDS011;31262;51.978;5.924;2022-09-09T11:36:10;4.80;;;0.50;;
45536;SDS011;31262;51.978;5.924;2022-09-09T11:38:50;5.60;;;1.02;;
45536;SDS011;31262;51.978;5.924;2022-09-09T11:41:18;8.40;;;0.70;;
45536;SDS011;31262;51.978;5.924;2022-09-09T11:43:52;5.35;;;0.60;;
45536;SDS011;31262;51.978;5.924;2022-09-09T11:46:39;5.13;;;0.60;;
45536;SDS011;31262;51.978;5.924;2022-09-09T11:49:06;4.68;;;0.60;;
45536;SDS011;31262;51.978;5.924;2022-09-09T11:51:53;2.40;;;0.40;;
45536;SDS011;31262;51.978;5.924;2022-09-09T11:54:32;3.15;;;0.60;;
45536;SDS011;31262;51.978;5.924;2022-09-09T11:57:25;2.95;;;0.45;;
45536;SDS011;31262;51.978;5.924;2022-09-09T11:59:57;4.50;;;0.50;;
45536;SDS011;31262;51.978;5.924;2022-09-09T12:02:25;4.68;;;0.50;;
45536;SDS011;31262;51.978;5.924;2022-09-09T12:07:34;3.90;;;0.50;;
45536;SDS011;31262;51.978;5.924;2022-09-09T12:10:26;2.47;;;0.40;;
45536;SDS011;31262;51.978;5.924;2022-09-09T12:15:48;5.20;;;0.40;;
45536;SDS011;31262;51.978;5.924;2022-09-09T12:18:20;4.07;;;0.60;;
45536;SDS011;31262;51.978;5.924;2022-09-09T12:21:54;5.03;;;0.50;;
45536;SDS011;31262;51.978;5.924;2022-09-09T12:24:00;3.85;;;0.40;;
45536;SDS011;31262;51.978;5.924;2022-09-09T12:26:34;3.13;;;0.40;;
45536;SDS011;31262;51.978;5.924;2022-09-09T12:31:56;3.83;;;0.40;;
45536;SDS011;31262;51.978;5.924;2022-09-09T12:37:04;3.63;;;0.40;;
45536;SDS011;31262;51.978;5.924;2022-09-09T12:39:51;1.85;;;0.30;;
45536;SDS011;31262;51.978;5.924;2022-09-09T12:42:22;4.28;;;0.43;;
45536;SDS011;31262;51.978;5.924;2022-09-09T12:47:17;3.10;;;0.30;;
45536;SDS011;31262;51.978;5.924;2022-09-09T12:49:45;3.20;;;0.40;;
45536;SDS011;31262;51.978;5.924;2022-09-09T12:52:32;2.47;;;0.40;;
45536;SDS011;31262;51.978;5.924;2022-09-09T12:55:03;1.83;;;0.40;;
45536;SDS011;31262;51.978;5.924;2022-09-09T12:57:34;2.28;;;0.40;;
45536;SDS011;31262;51.978;5.924;2022-09-09T13:00:13;5.75;;;0.40;;
45536;SDS011;31262;51.978;5.924;2022-09-09T13:02:49;1.88;;;0.30;;
45536;SDS011;31262;51.978;5.924;2022-09-09T13:05:20;2.50;;;0.38;;
45536;SDS011;31262;51.978;5.924;2022-09-09T13:07:52;2.05;;;0.43;;
45536;SDS011;31262;51.978;5.924;2022-09-09T13:10:27;4.63;;;0.50;;
45536;SDS011;31262;51.978;5.924;2022-09-09T13:12:58;3.80;;;0.50;;
45536;SDS011;31262;51.978;5.924;2022-09-09T13:15:26;3.03;;;0.38;;
45536;SDS011;31262;51.978;5.924;2022-09-09T13:20:21;2.20;;;0.40;;
45536;SDS011;31262;51.978;5.924;2022-09-09T13:22:48;2.97;;;0.32;;
45536;SDS011;31262;51.978;5.924;2022-09-09T13:25:20;2.67;;;0.32;;
45536;SDS011;31262;51.978;5.924;2022-09-09T13:28:18;3.42;;;0.40;;
45536;SDS011;31262;51.978;5.924;2022-09-09T13:33:24;3.30;;;0.65;;
45536;SDS011;31262;51.978;5.924;2022-09-09T13:35:57;2.50;;;0.40;;
45536;SDS011;31262;51.978;5.924;2022-09-09T13:38:24;3.33;;;0.50;;
45536;SDS011;31262;51.978;5.924;2022-09-09T13:41:00;3.67;;;0.40;;
45536;SDS011;31262;51.978;5.924;2022-09-09T13:43:43;3.97;;;0.50;;
45536;SDS011;31262;51.978;5.924;2022-09-09T13:48:59;3.70;;;0.73;;
45536;SDS011;31262;51.978;5.924;2022-09-09T13:51:29;2.97;;;0.60;;
45536;SDS011;31262;51.978;5.924;2022-09-09T13:54:08;5.90;;;0.70;;
45536;SDS011;31262;51.978;5.924;2022-09-09T13:56:36;2.38;;;0.50;;
45536;SDS011;31262;51.978;5.924;2022-09-09T13:59:04;2.88;;;0.55;;
45536;SDS011;31262;51.978;5.924;2022-09-09T14:01:30;3.63;;;0.40;;
45536;SDS011;31262;51.978;5.924;2022-09-09T14:03:58;2.17;;;0.52;;
45536;SDS011;31262;51.978;5.924;2022-09-09T14:06:23;2.47;;;0.40;;
45536;SDS011;31262;51.978;5.924;2022-09-09T14:08:49;3.78;;;0.38;;
45536;SDS011;31262;51.978;5.924;2022-09-09T14:11:16;3.13;;;0.32;;
45536;SDS011;31262;51.978;5.924;2022-09-09T14:13:41;2.65;;;0.30;;
45536;SDS011;31262;51.978;5.924;2022-09-09T14:16:07;1.65;;;0.30;;
45536;SDS011;31262;51.978;5.924;2022-09-09T14:18:33;5.53;;;0.30;;
45536;SDS011;31262;51.978;5.924;2022-09-09T14:20:59;2.40;;;0.40;;
45536;SDS011;31262;51.978;5.924;2022-09-09T14:23:24;1.95;;;0.30;;
45536;SDS011;31262;51.978;5.924;2022-09-09T14:25:50;2.90;;;0.30;;
45536;SDS011;31262;51.978;5.924;2022-09-09T14:28:16;2.17;;;0.28;;
45536;SDS011;31262;51.978;5.924;2022-09-09T14:30:42;2.33;;;0.30;;
45536;SDS011;31262;51.978;5.924;2022-09-09T14:33:12;3.65;;;0.35;;
45536;SDS011;31262;51.978;5.924;2022-09-09T14:35:40;2.53;;;0.40;;
45536;SDS011;31262;51.978;5.924;2022-09-09T14:38:06;4.07;;;0.40;;
45536;SDS011;31262;51.978;5.924;2022-09-09T14:40:33;2.63;;;0.50;;
45536;SDS011;31262;51.978;5.924;2022-09-09T14:42:59;5.05;;;1.33;;
45536;SDS011;31262;51.978;5.924;2022-09-09T14:45:25;4.30;;;0.90;;
45536;SDS011;31262;51.978;5.924;2022-09-09T14:47:51;2.85;;;0.47;;
45536;SDS011;31262;51.978;5.924;2022-09-09T14:50:18;3.25;;;0.60;;
45536;SDS011;31262;51.978;5.924;2022-09-09T14:52:44;2.50;;;0.40;;
45536;SDS011;31262;51.978;5.924;2022-09-09T14:55:09;4.65;;;0.70;;
45536;SDS011;31262;51.978;5.924;2022-09-09T14:57:36;2.78;;;0.43;;
45536;SDS011;31262;51.978;5.924;2022-09-09T15:00:05;4.15;;;0.65;;
45536;SDS011;31262;51.978;5.924;2022-09-09T15:02:35;3.70;;;0.50;;
45536;SDS011;31262;51.978;5.924;2022-09-09T15:05:00;3.38;;;0.40;;
45536;SDS011;31262;51.978;5.924;2022-09-09T15:07:26;1.73;;;0.30;;
45536;SDS011;31262;51.978;5.924;2022-09-09T15:09:54;2.38;;;0.40;;
45536;SDS011;31262;51.978;5.924;2022-09-09T15:12:22;4.35;;;0.43;;
45536;SDS011;31262;51.978;5.924;2022-09-09T15:14:49;4.20;;;0.50;;
45536;SDS011;31262;51.978;5.924;2022-09-09T15:17:15;4.88;;;0.50;;
45536;SDS011;31262;51.978;5.924;2022-09-09T15:19:41;2.22;;;0.40;;
45536;SDS011;31262;51.978;5.924;2022-09-09T15:22:10;2.75;;;0.32;;
45536;SDS011;31262;51.978;5.924;2022-09-09T15:24:35;2.97;;;0.50;;
45536;SDS011;31262;51.978;5.924;2022-09-09T15:27:01;3.05;;;0.50;;
45536;SDS011;31262;51.978;5.924;2022-09-09T15:29:27;2.95;;;0.40;;
45536;SDS011;31262;51.978;5.924;2022-09-09T15:31:53;4.05;;;0.50;;
45536;SDS011;31262;51.978;5.924;2022-09-09T15:34:20;2.47;;;0.30;;
45536;SDS011;31262;51.978;5.924;2022-09-09T15:36:45;5.70;;;2.25;;
45536;SDS011;31262;51.978;5.924;2022-09-09T15:39:12;5.72;;;1.17;;
45536;SDS011;31262;51.978;5.924;2022-09-09T15:41:40;4.35;;;0.70;;
45536;SDS011;31262;51.978;5.924;2022-09-09T15:44:10;3.85;;;0.63;;
45536;SDS011;31262;51.978;5.924;2022-09-09T15:46:41;4.78;;;0.77;;
45536;SDS011;31262;51.978;5.924;2022-09-09T15:49:16;5.05;;;0.65;;
45536;SDS011;31262;51.978;5.924;2022-09-09T15:51:44;3.00;;;0.30;;
45536;SDS011;31262;51.978;5.924;2022-09-09T15:54:13;2.35;;;0.32;;
45536;SDS011;31262;51.978;5.924;2022-09-09T15:56:41;4.13;;;0.60;;
45536;SDS011;31262;51.978;5.924;2022-09-09T15:59:07;2.58;;;0.40;;
45536;SDS011;31262;51.978;5.924;2022-09-09T16:01:33;3.97;;;0.52;;
45536;SDS011;31262;51.978;5.924;2022-09-09T16:03:59;7.63;;;0.77;;
45536;SDS011;31262;51.978;5.924;2022-09-09T16:06:26;3.63;;;0.57;;
45536;SDS011;31262;51.978;5.924;2022-09-09T16:08:53;4.68;;;0.70;;
45536;SDS011;31262;51.978;5.924;2022-09-09T16:11:20;5.05;;;0.50;;
45536;SDS011;31262;51.978;5.924;2022-09-09T16:13:47;2.42;;;0.40;;
45536;SDS011;31262;51.978;5.924;2022-09-09T16:16:15;2.10;;;0.30;;
45536;SDS011;31262;51.978;5.924;2022-09-09T16:18:43;3.90;;;0.68;;
45536;SDS011;31262;51.978;5.924;2022-09-09T16:21:14;3.72;;;0.60;;
45536;SDS011;31262;51.978;5.924;2022-09-09T16:23:41;2.03;;;0.40;;
45536;SDS011;31262;51.978;5.924;2022-09-09T16:26:09;2.60;;;0.40;;
45536;SDS011;31262;51.978;5.924;2022-09-09T16:31:06;3.08;;;0.50;;
45536;SDS011;31262;51.978;5.924;2022-09-09T16:33:36;2.55;;;0.43;;
45536;SDS011;31262;51.978;5.924;2022-09-09T16:36:16;4.40;;;0.70;;
45536;SDS011;31262;51.978;5.924;2022-09-09T16:41:19;4.10;;;1.13;;
45536;SDS011;31262;51.978;5.924;2022-09-09T16:43:45;3.75;;;1.20;;
45536;SDS011;31262;51.978;5.924;2022-09-09T16:46:17;2.67;;;0.80;;
45536;SDS011;31262;51.978;5.924;2022-09-09T16:48:47;3.33;;;0.50;;
45536;SDS011;31262;51.978;5.924;2022-09-09T16:51:27;2.15;;;0.60;;
45536;SDS011;31262;51.978;5.924;2022-09-09T16:53:55;1.75;;;0.32;;
45536;SDS011;31262;51.978;5.924;2022-09-09T16:56:25;0.95;;;0.30;;
45536;SDS011;31262;51.978;5.924;2022-09-09T16:58:56;2.15;;;0.40;;
45536;SDS011;31262;51.978;5.924;2022-09-09T17:01:23;1.98;;;0.47;;
45536;SDS011;31262;51.978;5.924;2022-09-09T17:03:54;1.02;;;0.30;;
45536;SDS011;31262;51.978;5.924;2022-09-09T17:06:20;1.55;;;0.45;;
45536;SDS011;31262;51.978;5.924;2022-09-09T17:08:46;1.60;;;0.40;;
45536;SDS011;31262;51.978;5.924;2022-09-09T17:11:17;3.78;;;0.60;;
45536;SDS011;31262;51.978;5.924;2022-09-09T17:13:44;1.67;;;0.47;;
45536;SDS011;31262;51.978;5.924;2022-09-09T17:16:11;1.60;;;0.50;;
45536;SDS011;31262;51.978;5.924;2022-09-09T17:18:38;2.85;;;0.70;;
45536;SDS011;31262;51.978;5.924;2022-09-09T17:21:15;1.88;;;0.30;;
45536;SDS011;31262;51.978;5.924;2022-09-09T17:23:43;3.15;;;0.40;;
45536;SDS011;31262;51.978;5.924;2022-09-09T17:26:10;1.85;;;0.30;;
45536;SDS011;31262;51.978;5.924;2022-09-09T17:28:38;1.35;;;0.38;;
45536;SDS011;31262;51.978;5.924;2022-09-09T17:31:05;2.10;;;0.40;;